Latest Coastal Weather Observations for Kowanyama

IDQ60701

Issued at 5:22 am EST Thursday 29 June 2017 (issued every 10 minutes, with the page automatically refreshed every 10 minutes)

About coastal observations | Map of coastal stations | Coastal observations for QLD | Marine services | Other Formats
Station Details ID: 029038 Name: KOWANYAMA AIRPORT Lat: -15.48 Lon: 141.75 Height: 9.6 m
Data from the previous 72 hours. | See also: Recent months at Kowanyama
Date/Time
EST
Temp
°C
Wind Pressure Rain since
9am
mm
Weather Cloud Vis
km
Sea
Height
m
Swell
Dir  Spd
kts
Gust
kts
hPa Trend Height
m
Period
s
Dir
29/05:00am 20.8 CALM 0 0 1015.2 - 0.0 - Partly cloudy 10 - - - -
29/04:30am 21.0 CALM 0 0 1014.8 - 0.0 - Partly cloudy 10 - - - -
29/04:00am 20.9 CALM 0 0 1014.9 - 0.0 - - 10 - - - -
29/03:30am 21.2 CALM 0 0 1014.9 - 0.0 - - 10 - - - -
29/03:00am 21.9 CALM 0 0 1014.9 - 0.0 - Partly cloudy 10 - - - -
29/02:30am 21.6 CALM 0 0 1015.1 - 0.0 - Partly cloudy 10 - - - -
29/02:00am 21.8 CALM 0 0 1015.3 - 0.0 - Partly cloudy 10 - - - -
29/01:30am 22.4 CALM 0 0 1015.6 - 0.0 - Partly cloudy 10 - - - -
29/01:00am 22.5 CALM 0 0 1015.6 - 0.0 - Partly cloudy 10 - - - -
29/12:30am 23.5 CALM 0 0 1015.5 - 0.0 - Partly cloudy 10 - - - -
29/12:00am 23.6 CALM 0 0 1015.4 - 0.0 - Cloudy 10 - - - -
 
Date/Time
EST
Temp
°C
Wind Pressure Rain since
9am
mm
Weather Cloud Vis
km
Sea
Height
m
Swell
Dir  Spd
kts
Gust
kts
hPa Trend Height
m
Period
s
Dir
28/11:30pm 23.6 SSW 2 3 1015.3 - 0.0 - Partly cloudy 10 - - - -
28/11:00pm 23.5 SW 3 3 1015.5 - 0.0 - Partly cloudy 10 - - - -
28/10:30pm 23.9 SSW 3 4 1015.6 - 0.0 - Partly cloudy 10 - - - -
28/10:00pm 24.3 SSE 3 4 1015.5 - 0.0 - Partly cloudy 10 - - - -
28/09:30pm 25.0 CALM 0 0 1015.3 - 0.0 - Partly cloudy 10 - - - -
28/09:23pm 25.1 CALM 0 0 1015.3 - 0.0 - Partly cloudy 10 - - - -
28/09:04pm 24.9 CALM 0 0 1015.1 - 0.0 - Partly cloudy 3 - - - -
28/09:00pm 24.9 CALM 0 0 1015.0 - 0.0 - Cloudy 7 - - - -
28/08:30pm 24.8 CALM 0 0 1014.8 - 0.0 - Partly cloudy 10 - - - -
28/08:00pm 24.6 CALM 0 0 1014.5 - 0.0 - Partly cloudy 10 - - - -
28/07:30pm 25.5 SE 2 3 1014.1 - 0.0 - Partly cloudy 10 - - - -
28/07:00pm 26.4 SE 4 4 1013.7 - 0.0 - - 10 - - - -
28/06:30pm 27.8 ESE 4 5 1013.5 - 0.0 - - 10 - - - -
28/06:00pm 29.6 ESE 5 6 1013.2 - 0.0 - - 10 - - - -
28/05:30pm 30.7 ESE 6 8 1013.0 - 0.0 - - 10 - - - -
28/05:00pm 31.0 ESE 7 9 1012.9 - 0.0 - Partly cloudy 10 - - - -
28/04:30pm 30.7 ESE 6 7 1012.7 - 0.0 - Partly cloudy 10 - - - -
28/04:00pm 30.8 SSE 7 9 1012.5 - 0.0 - Partly cloudy 10 - - - -
28/03:30pm 31.6 ESE 7 11 1012.5 - 0.0 - Partly cloudy 10 - - - -
28/03:00pm 31.1 ESE 9 12 1012.8 - 0.0 - Cloudy 10 - - - -
28/02:30pm 31.2 ESE 7 11 1012.9 - 0.0 - Partly cloudy 10 - - - -
28/02:00pm 30.6 E 8 13 1013.1 - 0.0 - Partly cloudy 10 - - - -
28/01:30pm 30.5 ENE 6 9 1013.7 - 0.0 - Partly cloudy 10 - - - -
28/01:00pm 31.3 ESE 8 13 1014.1 - 0.0 - - 10 - - - -
28/12:30pm 30.6 E 7 15 1014.7 - 0.0 - - 10 - - - -
28/12:00pm 30.3 E 9 13 1015.3 - 0.0 - - 10 - - - -
28/11:30am 29.1 E 8 14 1015.6 - 0.0 - Partly cloudy 10 - - - -
28/11:00am 29.2 E 8 11 1015.9 - 0.0 - - 10 - - - -
28/10:30am 27.5 ESE 10 17 1016.1 - 0.0 - Partly cloudy 10 - - - -
28/10:00am 25.8 ENE 9 15 1016.4 - 0.0 - - 10 - - - -
28/09:30am 25.1 ENE 6 10 1016.6 - 0.0 - Partly cloudy 10 - - - -
28/09:00am 23.3 E 5 7 1016.7 - 0.0 - Partly cloudy - - - - -
28/08:30am 22.3 ESE 5 6 1016.4 - 0.0 - Partly cloudy - - - - -
28/08:00am 19.9 SE 3 4 1016.2 - 0.0 - - - - - - -
28/07:30am 18.5 SE 3 4 1015.9 - 0.0 - - - - - - -
28/07:00am 17.8 SE 4 5 1015.6 - 0.0 - - - - - - -
28/06:30am 17.4 CALM 0 0 1015.4 - 0.0 - - - - - - -
28/06:00am 17.5 CALM 0 0 1015.2 - 0.0 - - - - - - -
28/05:30am 18.0 CALM 0 0 1014.9 - 0.0 - - - - - - -
28/05:00am 18.3 CALM 0 0 1014.7 - 0.0 - - - - - - -
28/04:30am 18.8 CALM 0 0 1014.8 - 0.0 - - - - - - -
28/04:00am 19.2 CALM 0 0 1014.7 - 0.0 - - - - - - -
28/03:30am 19.8 CALM 0 2 1014.6 - 0.0 - - - - - - -
28/03:00am 20.7 NE 3 5 1014.5 - 0.0 - - - - - - -
28/02:30am 19.5 NNE 3 5 1014.5 - 0.0 - - - - - - -
28/02:00am 19.7 CALM 0 0 1014.7 - 0.0 - - 10 - - - -
28/01:30am 20.1 CALM 0 0 1014.8 - 0.0 - Partly cloudy 10 - - - -
28/01:00am 20.4 CALM 0 0 1015.0 - 0.0 - - 10 - - - -
28/12:30am 20.8 NNE 3 5 1015.1 - 0.0 - Partly cloudy 10 - - - -
28/12:00am 21.6 ENE 4 5 1015.2 - 0.0 - Mostly clear 10 - - - -
 
Date/Time
EST
Temp
°C
Wind Pressure Rain since
9am
mm
Weather Cloud Vis
km
Sea
Height
m
Swell
Dir  Spd
kts
Gust
kts
hPa Trend Height
m
Period
s
Dir
27/11:30pm 22.6 SSE 4 5 1015.0 - 0.0 - Partly cloudy 10 - - - -
27/11:00pm 22.6 SSW 4 5 1015.0 - 0.0 - Partly cloudy 10 - - - -
27/10:30pm 22.5 SSW 4 6 1015.1 - 0.0 - Partly cloudy 10 - - - -
27/10:00pm 22.4 SSW 4 6 1015.0 - 0.0 - Partly cloudy 10 - - - -
27/09:30pm 22.4 SSW 4 4 1014.7 - 0.0 - Partly cloudy 10 - - - -
27/09:00pm 22.8 SSW 4 6 1014.6 - 0.0 - Mostly clear 10 - - - -
27/08:30pm 23.2 SW 4 6 1014.4 - 0.0 - - 10 - - - -
27/08:00pm 23.7 SW 4 5 1014.2 - 0.0 - Partly cloudy 10 - - - -
27/07:30pm 23.6 NNE 3 7 1014.1 - 0.0 - Cloudy 10 - - - -
27/07:00pm 23.9 CALM 0 0 1013.9 - 0.0 - Partly cloudy 10 - - - -
27/06:30pm 25.1 E 2 4 1013.7 - 0.0 - - 10 - - - -
27/06:19pm 25.9 ENE 3 4 1013.6 - 0.0 - - 10 - - - -
27/06:01pm 27.5 ENE 3 4 1013.5 - 0.0 - - 4 - - - -
27/06:00pm 27.5 ENE 3 5 1013.5 - 0.0 - - 7 - - - -
27/05:30pm 29.3 ENE 4 6 1013.2 - 0.0 - - 10 - - - -
27/05:00pm 30.1 ENE 7 9 1012.9 - 0.0 - - 10 - - - -
27/04:30pm 30.1 E 6 9 1012.5 - 0.0 - Partly cloudy 10 - - - -
27/04:00pm 30.8 E 7 12 1012.4 - 0.0 - - 10 - - - -
27/03:30pm 31.1 NE 6 10 1012.4 - 0.0 - - 10 - - - -
27/03:00pm 30.5 SE 9 13 1012.8 - 0.0 - - 10 - - - -
27/02:30pm 30.4 ENE 7 11 1013.3 - 0.0 - - 10 - - - -
27/02:00pm 30.1 ENE 9 16 1013.8 - 0.0 - - 10 - - - -
27/01:30pm 29.9 ESE 8 18 1014.2 - 0.0 - - 10 - - - -
27/01:00pm 30.0 ENE 8 13 1014.6 - 0.0 - Partly cloudy 10 - - - -
27/12:30pm 28.9 ESE 9 14 1015.2 - 0.0 - Partly cloudy 10 - - - -
27/12:00pm 28.2 E 9 16 1015.7 - 0.0 - - 10 - - - -
27/11:30am 28.4 E 9 14 1016.0 - 0.0 - Partly cloudy 10 - - - -
27/11:00am 27.5 ESE 12 17 1016.3 - 0.0 - - 10 - - - -
27/10:30am 26.9 E 10 17 1016.6 - 0.0 - - 10 - - - -
27/10:00am 26.1 E 10 15 1016.6 - 0.0 - - 10 - - - -
27/09:30am 25.6 E 10 18 1016.5 - 0.0 - - 10 - - - -
27/09:00am 24.0 E 7 14 1016.5 - 0.0 - Mostly clear - - - - -
27/08:30am 21.8 ENE 5 11 1016.3 - 0.0 - - - - - - -
27/08:00am 19.8 E 2 3 1016.1 - 0.0 - - - - - - -
27/07:30am 17.0 SE 3 4 1016.0 - 0.0 - - - - - - -
27/07:00am 16.7 SE 1 3 1015.8 - 0.0 - - - - - - -
27/06:30am 16.5 ENE 3 4 1015.7 - 0.0 - - - - - - -
27/06:00am 16.4 CALM 0 0 1015.6 - 0.0 - - - - - - -
27/05:30am 16.8 CALM 0 0 1015.3 - 0.0 - - - - - - -
27/05:00am 16.9 CALM 0 0 1015.2 - 0.0 - - - - - - -
27/04:30am 17.7 CALM 0 0 1015.2 - 0.0 - - - - - - -
27/04:00am 17.5 CALM 0 0 1015.2 - 0.0 - - - - - - -
27/03:30am 17.8 ESE 3 4 1015.2 - 0.0 - - - - - - -
27/03:00am 18.3 ENE 3 4 1015.4 - 0.0 - - - - - - -
27/02:30am 18.3 CALM 0 0 1015.5 - 0.0 - - 10 - - - -
27/02:00am 18.5 CALM 0 0 1015.7 - 0.0 - - 10 - - - -
27/01:30am 19.2 CALM 0 0 1015.5 - 0.0 - - 10 - - - -
27/01:00am 20.1 SE 2 4 1015.7 - 0.0 - - 10 - - - -
27/12:30am 20.7 ENE 5 9 1015.8 - 0.0 - - 10 - - - -
27/12:00am 20.5 ESE 3 5 1015.6 - 0.0 - - 10 - - - -
 
Date/Time
EST
Temp
°C
Wind Pressure Rain since
9am
mm
Weather Cloud Vis
km
Sea
Height
m
Swell
Dir  Spd
kts
Gust
kts
hPa Trend Height
m
Period
s
Dir
26/11:30pm 21.9 SSE 3 5 1015.4 - 0.0 - - 10 - - - -
26/11:00pm 21.9 SSW 4 6 1015.5 - 0.0 - - 10 - - - -
26/10:30pm 21.9 SSW 4 5 1015.6 - 0.0 - - 10 - - - -
26/10:00pm 22.0 S 5 6 1015.6 - 0.0 - - 10 - - - -
26/09:30pm 21.7 SSW 3 5 1015.5 - 0.0 - - 10 - - - -
26/09:00pm 22.5 SW 3 4 1015.3 - 0.0 - Mostly clear 10 - - - -
26/08:30pm 23.0 W 4 5 1015.0 - 0.0 - Partly cloudy 10 - - - -
26/08:00pm 23.8 WSW 4 5 1014.6 - 0.0 - Cloudy 10 - - - -
26/07:30pm 24.5 W 3 5 1014.5 - 0.0 - Partly cloudy 10 - - - -
26/07:00pm 24.7 W 5 6 1014.0 - 0.0 - Partly cloudy 10 - - - -
26/06:30pm 25.8 W 5 6 1013.6 - 0.0 - Partly cloudy 10 - - - -
26/06:00pm 26.9 SE 1 4 1013.3 - 0.0 - Mostly cloudy 10 - - - -
26/05:30pm 28.3 ESE 4 5 1013.2 - 0.0 - Partly cloudy 10 - - - -
26/05:00pm 29.5 ESE 5 8 1013.1 - 0.0 - Partly cloudy 10 - - - -
26/04:30pm 29.5 ESE 5 6 1012.9 - 0.0 - Partly cloudy 10 - - - -
26/04:00pm 30.7 E 2 5 1012.8 - 0.0 - Partly cloudy 10 - - - -
26/03:30pm 30.5 ESE 7 10 1012.9 - 0.0 - Partly cloudy 10 - - - -
26/03:00pm 30.9 E 4 10 1013.0 - 0.0 - Mostly clear 10 - - - -
26/02:30pm 30.0 ESE 4 7 1013.3 - 0.0 - Partly cloudy 10 - - - -
26/02:00pm 30.0 E 6 8 1013.7 - 0.0 - Cloudy 10 - - - -
26/01:30pm 29.9 SE 9 14 1014.1 - 0.0 - Partly cloudy 10 - - - -
26/01:00pm 30.7 E 5 9 1014.3 - 0.0 - Partly cloudy 10 - - - -
26/12:30pm 29.5 ESE 7 10 1014.8 - 0.0 - - 10 - - - -
26/12:00pm 29.2 ESE 7 11 1015.2 - 0.0 - - 10 - - - -
26/11:30am 28.5 ESE 7 12 1015.5 - 0.0 - - 10 - - - -
26/11:00am 27.8 E 7 11 1015.9 - 0.0 - - 10 - - - -
26/10:30am 27.1 E 8 11 1016.1 - 0.0 - - 10 - - - -
26/10:00am 25.5 ENE 9 14 1016.2 - 0.0 - - 10 - - - -
26/09:30am 24.2 E 7 11 1016.1 - 0.0 - - 10 - - - -
26/09:00am 22.8 E 7 10 1016.0 - 0.0 - - - - - - -
26/08:30am 21.6 E 5 8 1015.9 - 0.0 - - - - - - -
26/08:00am 20.7 E 4 7 1015.6 - 0.0 - Partly cloudy - - - - -
26/07:30am 18.5 CALM 0 3 1015.4 - 0.0 - Partly cloudy - - - - -
26/07:00am 18.3 SE 3 4 1015.1 - 0.0 - - - - - - -
26/06:30am 19.0 ENE 4 4 1014.7 - 0.0 - Partly cloudy - - - - -
26/06:00am 19.6 ESE 4 5 1014.6 - 0.0 - Mostly clear - - - - -
26/05:30am 20.8 E 3 5 1014.3 - 0.0 - Partly cloudy - - - - -

Other Formats:

Comma delimited format used in spreadsheet applications
http://www.bom.gov.au/fwo/IDQ60701/IDQ60701.94268.axf

JavaScript Object Notation format (JSON) in row-major order
http://www.bom.gov.au/fwo/IDQ60701/IDQ60701.94268.json